createdAt,value
2022-10-31T00:00:13.724Z,62.40
2022-10-31T00:02:22.405Z,63.60
2022-10-31T00:04:29.300Z,62.88
2022-10-31T00:06:36.196Z,63.20
2022-10-31T00:08:43.103Z,63.67
2022-10-31T00:10:50.785Z,63.35
2022-10-31T00:12:57.847Z,63.28
2022-10-31T00:15:06.914Z,60.92
2022-10-31T00:17:13.787Z,60.05
2022-10-31T00:19:20.763Z,60.63
2022-10-31T00:21:28.128Z,58.13
2022-10-31T00:23:35.022Z,60.92
2022-10-31T00:25:42.877Z,59.72
2022-10-31T00:27:50.049Z,59.55
2022-10-31T00:29:57.280Z,59.42
2022-10-31T00:32:05.900Z,58.85
2022-10-31T00:34:12.653Z,55.97
2022-10-31T00:36:21.781Z,57.97
2022-10-31T00:38:28.543Z,55.90
2022-10-31T00:40:35.272Z,55.72
2022-10-31T00:42:43.672Z,55.40
2022-10-31T00:44:50.599Z,55.35
2022-10-31T00:46:57.481Z,55.85
2022-10-31T00:49:06.673Z,54.10
2022-10-31T00:51:14.259Z,53.10
2022-10-31T00:53:21.763Z,53.13
2022-10-31T00:55:28.588Z,51.92
2022-10-31T00:57:35.362Z,53.33
2022-10-31T00:59:44.322Z,50.72
2022-10-31T01:01:51.436Z,48.55
2022-10-31T01:03:58.634Z,49.50
2022-10-31T01:06:10.561Z,52.88
2022-10-31T01:08:17.698Z,50.63
2022-10-31T01:10:24.591Z,48.95
2022-10-31T01:12:32.045Z,49.40
2022-10-31T01:14:39.011Z,48.35
2022-10-31T01:16:45.925Z,49.60
2022-10-31T01:18:54.975Z,50.15
2022-10-31T01:21:11.427Z,49.83
2022-10-31T01:23:18.210Z,49.45
2022-10-31T01:25:25.070Z,45.85
2022-10-31T01:27:32.072Z,45.50
2022-10-31T01:29:39.338Z,43.47
2022-10-31T01:31:46.391Z,41.20
2022-10-31T01:33:54.853Z,42.42
2022-10-31T01:36:01.678Z,42.70
2022-10-31T01:38:10.196Z,41.10
2022-10-31T01:40:17.174Z,39.70
2022-10-31T01:42:25.957Z,40.60
2022-10-31T01:44:58.600Z,40.42
2022-10-31T01:47:11.973Z,38.17
2022-10-31T01:49:21.529Z,39.33
2022-10-31T01:51:32.878Z,38.65
2022-10-31T01:53:42.641Z,37.97
2022-10-31T01:55:50.675Z,38.40
2022-10-31T01:58:02.063Z,39.53
2022-10-31T02:02:22.025Z,37.90
2022-10-31T02:04:30.415Z,37.25
2022-10-31T02:06:42.854Z,35.47
2022-10-31T02:08:54.584Z,35.78
2022-10-31T02:11:03.367Z,36.80
2022-10-31T02:13:12.186Z,34.28
2022-10-31T02:15:24.912Z,33.88
2022-10-31T02:17:35.452Z,36.78
2022-10-31T02:19:50.213Z,37.13
2022-10-31T02:22:05.094Z,35.83
2022-10-31T02:24:55.749Z,34.55
2022-10-31T02:27:32.709Z,34.63
2022-10-31T02:30:09.208Z,34.20
2022-10-31T02:32:24.440Z,35.42
2022-10-31T02:34:40.513Z,35.00
2022-10-31T02:36:56.412Z,36.28
2022-10-31T02:39:13.570Z,35.13
2022-10-31T02:41:30.813Z,34.83
2022-10-31T02:43:51.475Z,32.20
2022-10-31T02:46:08.575Z,33.58
2022-10-31T02:48:22.519Z,31.42
2022-10-31T02:50:34.035Z,30.75
2022-10-31T02:52:42.801Z,30.35
2022-10-31T02:54:50.786Z,31.88
2022-10-31T02:57:03.530Z,31.45
2022-10-31T02:59:11.401Z,30.80
2022-10-31T03:01:51.646Z,32.90
2022-10-31T03:04:27.243Z,29.35
2022-10-31T03:06:39.250Z,30.23
2022-10-31T03:10:59.543Z,29.88
2022-10-31T03:13:13.557Z,30.33
2022-10-31T03:15:27.120Z,31.15
2022-10-31T03:17:40.502Z,31.00
2022-10-31T03:19:51.063Z,31.35
2022-10-31T03:22:03.469Z,27.52
2022-10-31T03:24:12.696Z,27.90
2022-10-31T03:26:21.851Z,28.05
2022-10-31T03:28:33.458Z,30.33
2022-10-31T03:30:43.479Z,28.52
2022-10-31T03:32:55.425Z,28.30
2022-10-31T03:35:04.013Z,25.58
2022-10-31T03:37:15.513Z,25.90
2022-10-31T03:39:25.447Z,26.70
2022-10-31T03:41:37.331Z,26.25
2022-10-31T03:43:50.159Z,25.20
2022-10-31T03:45:57.624Z,25.92
2022-10-31T03:48:04.876Z,25.25
2022-10-31T03:50:15.440Z,23.23
2022-10-31T03:52:31.479Z,25.25
2022-10-31T03:54:45.970Z,24.55
2022-10-31T03:56:57.497Z,23.58
2022-10-31T03:59:06.740Z,24.63
2022-10-31T04:01:19.417Z,23.80
2022-10-31T04:03:30.467Z,23.50
2022-10-31T04:05:41.203Z,23.30
2022-10-31T04:07:53.778Z,22.77
2022-10-31T04:10:04.328Z,22.63
2022-10-31T04:12:12.791Z,21.50
2022-10-31T04:14:36.910Z,22.15
2022-10-31T04:16:45.952Z,21.67
2022-10-31T04:18:53.102Z,21.33
2022-10-31T04:21:08.070Z,20.50
2022-10-31T04:23:23.124Z,20.15
2022-10-31T04:25:31.028Z,20.80
2022-10-31T04:27:39.754Z,20.50
2022-10-31T04:29:50.813Z,20.85
2022-10-31T04:31:58.796Z,21.20
2022-10-31T04:34:05.835Z,19.52
2022-10-31T04:36:13.580Z,21.75
2022-10-31T04:38:22.191Z,20.42
2022-10-31T04:40:30.269Z,21.15
2022-10-31T04:42:57.002Z,21.67
2022-10-31T04:45:04.318Z,21.88
2022-10-31T04:47:12.833Z,20.92
2022-10-31T04:49:19.668Z,21.17
2022-10-31T04:51:26.637Z,20.35
2022-10-31T04:53:35.437Z,20.17
2022-10-31T04:55:54.562Z,20.15
2022-10-31T04:58:04.592Z,20.77
2022-10-31T05:00:14.240Z,20.40
2022-10-31T05:02:21.164Z,20.73
2022-10-31T05:04:34.783Z,20.40
2022-10-31T05:06:42.719Z,20.77
2022-10-31T05:08:51.364Z,21.38
2022-10-31T05:11:03.178Z,20.90
2022-10-31T05:13:11.830Z,19.55
2022-10-31T05:15:32.261Z,19.33
2022-10-31T05:17:51.752Z,19.85
2022-10-31T05:20:11.525Z,20.38
2022-10-31T05:22:30.637Z,19.27
2022-10-31T05:24:39.682Z,18.27
2022-10-31T05:26:50.174Z,19.42
2022-10-31T05:28:57.609Z,18.85
2022-10-31T05:31:04.387Z,19.85
2022-10-31T05:33:12.070Z,19.42
2022-10-31T05:35:20.824Z,19.52
2022-10-31T05:37:39.887Z,19.30
2022-10-31T05:39:48.371Z,19.45
2022-10-31T05:41:57.390Z,19.15
2022-10-31T05:44:07.238Z,19.02
2022-10-31T05:46:26.856Z,19.02
2022-10-31T05:48:54.671Z,18.77
2022-10-31T05:51:21.882Z,17.85
2022-10-31T05:53:28.697Z,18.92
2022-10-31T05:55:37.433Z,18.83
2022-10-31T05:57:49.496Z,17.92
2022-10-31T05:59:56.868Z,17.52
2022-10-31T06:02:06.375Z,17.02
2022-10-31T06:04:25.774Z,16.63
2022-10-31T06:06:32.819Z,16.45
2022-10-31T06:08:40.538Z,17.13
2022-10-31T06:10:55.739Z,17.27
2022-10-31T06:13:22.815Z,17.05
2022-10-31T06:15:41.670Z,17.02
2022-10-31T06:17:48.908Z,17.95
2022-10-31T06:20:03.975Z,17.23
2022-10-31T06:22:14.604Z,17.58
2022-10-31T06:24:23.206Z,18.20
2022-10-31T06:26:44.824Z,18.08
2022-10-31T06:28:51.869Z,18.02
2022-10-31T06:31:18.358Z,17.27
2022-10-31T06:33:25.652Z,18.83
2022-10-31T06:35:37.792Z,19.23
2022-10-31T06:37:46.853Z,19.65
2022-10-31T06:40:09.950Z,19.10
2022-10-31T06:42:38.168Z,21.15
2022-10-31T06:44:45.130Z,19.02
2022-10-31T06:47:04.444Z,19.45
2022-10-31T06:49:17.542Z,20.38
2022-10-31T06:51:34.039Z,18.95
2022-10-31T06:53:40.829Z,19.75
2022-10-31T06:55:49.341Z,18.80
2022-10-31T06:58:02.991Z,19.35
2022-10-31T07:00:12.804Z,19.10
2022-10-31T07:02:23.630Z,19.15
2022-10-31T07:04:31.364Z,18.27
2022-10-31T07:06:38.239Z,18.73
2022-10-31T07:08:45.183Z,18.88
2022-10-31T07:10:57.577Z,18.30
2022-10-31T07:15:16.875Z,18.23
2022-10-31T07:17:29.869Z,17.85
2022-10-31T07:19:39.895Z,17.77
2022-10-31T07:21:46.736Z,18.50
2022-10-31T07:23:55.515Z,18.27
2022-10-31T07:26:21.882Z,17.77
2022-10-31T07:28:31.156Z,17.10
2022-10-31T07:30:42.023Z,17.80
2022-10-31T07:32:50.623Z,16.83
2022-10-31T07:34:58.855Z,17.42
2022-10-31T07:37:13.751Z,16.83
2022-10-31T07:39:20.902Z,16.30
2022-10-31T07:41:27.856Z,17.25
2022-10-31T07:43:36.861Z,17.13
2022-10-31T07:45:54.829Z,16.05
2022-10-31T07:48:14.093Z,16.15
2022-10-31T07:50:41.181Z,16.38
2022-10-31T07:53:07.299Z,16.70
2022-10-31T07:55:26.403Z,16.17
2022-10-31T07:57:38.570Z,17.13
2022-10-31T07:59:48.546Z,15.60
2022-10-31T08:01:57.560Z,17.23
2022-10-31T08:04:24.250Z,16.25
2022-10-31T08:06:43.222Z,16.95
2022-10-31T08:09:06.085Z,15.88
2022-10-31T08:11:13.342Z,17.75
2022-10-31T08:13:20.193Z,17.30
2022-10-31T08:15:32.403Z,17.08
2022-10-31T08:17:40.873Z,16.42
2022-10-31T08:19:50.521Z,16.08
2022-10-31T08:22:00.181Z,16.33
2022-10-31T08:24:07.805Z,16.20
2022-10-31T08:26:14.710Z,16.05
2022-10-31T08:28:23.219Z,16.90
2022-10-31T08:30:35.554Z,15.25
2022-10-31T08:33:05.271Z,16.77
2022-10-31T08:35:24.354Z,16.70
2022-10-31T08:37:58.125Z,16.08
2022-10-31T08:40:07.314Z,16.80
2022-10-31T08:42:15.146Z,17.27
2022-10-31T08:44:21.914Z,18.10
2022-10-31T08:46:30.888Z,17.98
2022-10-31T08:48:38.486Z,18.70
2022-10-31T08:50:49.046Z,18.70
2022-10-31T08:53:10.536Z,19.25
2022-10-31T08:55:19.795Z,18.35
2022-10-31T08:57:35.938Z,18.83
2022-10-31T08:59:42.987Z,19.08
2022-10-31T09:02:03.734Z,18.92
2022-10-31T09:04:10.811Z,21.42
2022-10-31T09:06:18.325Z,20.88
2022-10-31T09:08:28.322Z,20.45
2022-10-31T09:10:36.661Z,21.52
2022-10-31T09:12:43.633Z,19.63
2022-10-31T09:15:03.883Z,20.10
2022-10-31T09:17:18.686Z,19.40
2022-10-31T09:19:45.181Z,18.60
2022-10-31T09:21:55.549Z,20.00
2022-10-31T09:24:02.552Z,20.63
2022-10-31T09:26:10.015Z,20.38
2022-10-31T09:28:22.818Z,20.17
2022-10-31T09:30:30.624Z,20.05
2022-10-31T09:32:39.288Z,20.52
2022-10-31T09:34:46.208Z,20.83
2022-10-31T09:36:58.042Z,20.20
2022-10-31T09:39:04.807Z,19.98
2022-10-31T09:41:32.978Z,20.88
2022-10-31T09:43:51.446Z,21.02
2022-10-31T09:46:04.267Z,20.90
2022-10-31T09:48:39.822Z,22.05
2022-10-31T09:50:59.080Z,20.52
2022-10-31T09:53:19.236Z,22.23
2022-10-31T09:55:35.394Z,20.00
2022-10-31T09:57:43.880Z,21.05
2022-10-31T09:59:53.320Z,21.50
2022-10-31T10:02:05.592Z,22.05
2022-10-31T10:04:29.203Z,21.27
2022-10-31T10:06:51.557Z,20.98
2022-10-31T10:09:11.220Z,21.65
2022-10-31T10:11:41.712Z,20.90
2022-10-31T10:14:07.864Z,21.48
2022-10-31T10:16:26.049Z,21.27
2022-10-31T10:18:43.542Z,21.65
2022-10-31T10:21:04.811Z,21.92
2022-10-31T10:23:38.669Z,21.13
2022-10-31T10:25:48.114Z,21.42
2022-10-31T10:28:21.760Z,21.38
2022-10-31T10:30:37.210Z,20.67
2022-10-31T10:32:52.115Z,21.52
2022-10-31T10:35:03.547Z,20.48
2022-10-31T10:37:21.943Z,21.08
2022-10-31T10:39:33.713Z,20.98
2022-10-31T10:46:40.245Z,22.63
2022-10-31T10:48:48.833Z,21.85
2022-10-31T10:50:56.595Z,21.75
2022-10-31T10:53:11.175Z,22.23
2022-10-31T10:55:27.617Z,22.50
2022-10-31T10:57:47.186Z,21.05
2022-10-31T10:59:55.194Z,21.67
2022-10-31T11:02:03.834Z,22.27
2022-10-31T11:04:33.615Z,23.42
2022-10-31T11:06:40.727Z,22.48
2022-10-31T11:08:49.339Z,21.38
2022-10-31T11:11:06.497Z,22.25
2022-10-31T11:13:26.641Z,22.35
2022-10-31T11:15:38.760Z,23.98
2022-10-31T11:17:46.182Z,23.33
2022-10-31T11:20:03.283Z,23.85
2022-10-31T11:22:19.047Z,23.98
2022-10-31T11:24:29.430Z,23.00
2022-10-31T11:26:37.243Z,22.77
2022-10-31T11:28:44.052Z,23.60
2022-10-31T11:30:51.731Z,24.23
2022-10-31T11:32:59.182Z,24.98
2022-10-31T11:35:13.566Z,23.80
2022-10-31T11:37:24.232Z,25.20
2022-10-31T11:39:33.406Z,23.73
2022-10-31T11:41:41.797Z,25.55
2022-10-31T11:43:53.728Z,25.95
2022-10-31T11:46:01.580Z,31.33
2022-10-31T11:48:20.809Z,32.55
2022-10-31T11:50:31.197Z,30.35
2022-10-31T11:52:39.541Z,31.70
2022-10-31T11:54:53.204Z,33.80
2022-10-31T11:57:00.522Z,31.30
2022-10-31T11:59:08.920Z,28.52
2022-10-31T12:01:29.092Z,28.30
2022-10-31T12:03:50.747Z,29.08
2022-10-31T12:06:02.408Z,32.08
2022-10-31T12:08:11.178Z,34.13
2022-10-31T12:10:20.308Z,33.45
2022-10-31T12:12:50.531Z,34.25
2022-10-31T12:15:07.067Z,35.25
2022-10-31T12:17:18.933Z,35.08
2022-10-31T12:19:35.603Z,36.35
2022-10-31T12:22:15.446Z,34.97
2022-10-31T12:24:35.125Z,35.67
2022-10-31T12:26:50.872Z,34.90
2022-10-31T12:29:15.908Z,33.72
2022-10-31T12:31:38.303Z,33.65
2022-10-31T12:33:56.124Z,35.78
2022-10-31T12:36:28.764Z,35.00
2022-10-31T12:38:50.586Z,34.70
2022-10-31T12:41:21.989Z,32.80
2022-10-31T12:43:43.800Z,32.60
2022-10-31T12:48:26.134Z,31.40
2022-10-31T12:50:46.190Z,32.10
2022-10-31T12:53:01.700Z,32.97
2022-10-31T12:55:21.703Z,33.38
2022-10-31T12:57:33.993Z,32.75
2022-10-31T12:59:47.763Z,34.38
2022-10-31T13:01:58.779Z,32.45
2022-10-31T13:04:09.883Z,32.60
2022-10-31T13:06:21.547Z,32.50
2022-10-31T13:08:34.718Z,33.50
2022-10-31T13:10:47.679Z,32.90
2022-10-31T13:12:59.703Z,33.92
2022-10-31T13:15:16.876Z,34.25
2022-10-31T13:17:30.148Z,33.00
2022-10-31T13:19:40.118Z,34.08
2022-10-31T13:21:55.716Z,33.78
2022-10-31T13:24:06.725Z,34.33
2022-10-31T13:26:16.200Z,33.27
2022-10-31T13:28:32.980Z,33.28
2022-10-31T13:30:44.225Z,34.10
2022-10-31T13:32:57.030Z,32.95
2022-10-31T13:35:04.826Z,34.78
2022-10-31T13:37:32.201Z,36.00
2022-10-31T13:39:55.131Z,40.65
2022-10-31T13:42:08.469Z,42.50
2022-10-31T13:44:27.498Z,37.30
2022-10-31T13:46:46.792Z,37.00
2022-10-31T13:48:53.549Z,34.40
2022-10-31T13:51:02.011Z,36.00
2022-10-31T13:53:17.710Z,38.80
2022-10-31T13:55:46.815Z,42.20
2022-10-31T13:57:53.957Z,41.88
2022-10-31T14:00:02.865Z,41.13
2022-10-31T14:02:22.310Z,45.28
2022-10-31T14:04:32.960Z,42.60
2022-10-31T14:06:49.850Z,43.65
2022-10-31T14:08:57.051Z,42.20
2022-10-31T14:11:04.120Z,41.08
2022-10-31T14:13:18.316Z,43.75
2022-10-31T14:15:27.657Z,42.60
2022-10-31T14:17:43.247Z,43.25
2022-10-31T14:20:05.210Z,41.35
2022-10-31T14:22:25.206Z,43.55
2022-10-31T14:24:38.436Z,39.60
2022-10-31T14:26:55.091Z,38.42
2022-10-31T14:29:03.572Z,41.05
2022-10-31T14:31:38.460Z,39.85
2022-10-31T14:33:48.002Z,40.15
2022-10-31T14:36:01.848Z,42.08
2022-10-31T14:38:31.620Z,43.47
2022-10-31T14:40:54.248Z,42.17
2022-10-31T14:43:22.142Z,45.88
2022-10-31T14:45:38.602Z,46.80
2022-10-31T14:47:52.421Z,47.90
2022-10-31T14:50:24.518Z,47.50
2022-10-31T14:52:31.556Z,43.97
2022-10-31T14:54:42.140Z,48.05
2022-10-31T14:56:59.726Z,43.60
2022-10-31T14:59:11.296Z,44.15
2022-10-31T15:01:26.559Z,48.40
2022-10-31T15:03:37.569Z,51.45
2022-10-31T15:05:53.308Z,47.97
2022-10-31T15:08:01.845Z,47.33
2022-10-31T15:10:22.764Z,43.80
2022-10-31T15:12:31.513Z,48.88
2022-10-31T15:14:38.573Z,47.35
2022-10-31T15:16:47.297Z,48.47
2022-10-31T15:18:59.367Z,49.72
2022-10-31T15:21:09.982Z,48.78
2022-10-31T15:23:24.798Z,49.92
2022-10-31T15:25:36.948Z,48.95
2022-10-31T15:27:45.863Z,51.38
2022-10-31T15:29:53.907Z,51.58
2022-10-31T15:32:01.922Z,53.63
2022-10-31T15:34:16.782Z,52.63
2022-10-31T15:36:29.243Z,53.65
2022-10-31T15:38:38.266Z,54.20
2022-10-31T15:40:58.487Z,55.33
2022-10-31T15:43:08.783Z,57.15
2022-10-31T15:45:24.234Z,56.45
2022-10-31T15:47:34.368Z,57.83
2022-10-31T15:49:43.893Z,50.70
2022-10-31T15:51:54.577Z,48.35
2022-10-31T15:54:03.616Z,51.60
2022-10-31T15:56:12.861Z,50.13
2022-10-31T15:58:21.614Z,50.08
2022-10-31T16:00:31.137Z,43.50
2022-10-31T16:02:38.286Z,41.85
2022-10-31T16:04:54.697Z,40.90
2022-10-31T16:07:07.463Z,39.55
2022-10-31T16:09:26.538Z,40.08
2022-10-31T16:11:39.858Z,34.58
2022-10-31T16:13:56.507Z,38.00
2022-10-31T16:18:39.176Z,33.88
2022-10-31T16:20:54.573Z,32.70
2022-10-31T16:23:04.330Z,32.22
2022-10-31T16:25:16.430Z,31.27
2022-10-31T16:27:28.933Z,32.35
2022-10-31T16:29:42.278Z,33.30
2022-10-31T16:31:49.164Z,31.48
2022-10-31T16:34:07.373Z,30.60
2022-10-31T16:36:36.185Z,29.80
2022-10-31T16:38:44.975Z,29.35
2022-10-31T16:40:52.386Z,29.90
2022-10-31T16:43:02.013Z,29.20
2022-10-31T16:45:11.438Z,29.33
2022-10-31T16:47:24.630Z,28.63
2022-10-31T16:49:34.395Z,28.65
2022-10-31T16:51:41.163Z,28.98
2022-10-31T16:53:49.803Z,27.65
2022-10-31T16:56:00.772Z,27.13
2022-10-31T16:58:07.640Z,26.97
2022-10-31T17:00:18.654Z,27.25
2022-10-31T17:02:26.190Z,26.37
2022-10-31T17:04:33.650Z,24.98
2022-10-31T17:06:40.432Z,24.33
2022-10-31T17:08:49.201Z,22.77
2022-10-31T17:10:57.762Z,22.15
2022-10-31T17:13:07.973Z,22.85
2022-10-31T17:15:21.075Z,22.08
2022-10-31T17:17:28.107Z,20.60
2022-10-31T17:19:35.918Z,20.90
2022-10-31T17:21:43.381Z,19.50
2022-10-31T17:23:57.710Z,19.92
2022-10-31T17:26:04.570Z,18.52
2022-10-31T17:28:14.345Z,19.17
2022-10-31T17:30:21.993Z,19.05
2022-10-31T17:32:28.843Z,18.90
2022-10-31T17:34:36.097Z,18.77
2022-10-31T17:36:42.976Z,18.88
2022-10-31T17:38:49.976Z,18.88
2022-10-31T17:40:58.602Z,18.38
2022-10-31T17:43:05.338Z,18.30
2022-10-31T17:45:14.257Z,17.95
2022-10-31T17:47:21.387Z,18.98
2022-10-31T17:49:28.217Z,18.15
2022-10-31T17:51:35.528Z,17.80
2022-10-31T17:53:42.402Z,17.98
2022-10-31T17:55:49.381Z,18.38
2022-10-31T17:57:57.970Z,18.00
2022-10-31T18:00:05.501Z,17.75
2022-10-31T18:02:13.662Z,17.90
2022-10-31T18:04:21.049Z,17.95
2022-10-31T18:06:28.021Z,18.08
2022-10-31T18:08:36.306Z,17.98
2022-10-31T18:10:43.594Z,17.15
2022-10-31T18:12:50.904Z,18.48
2022-10-31T18:14:59.348Z,18.08
2022-10-31T18:17:06.148Z,17.30
2022-10-31T18:19:17.154Z,17.40
2022-10-31T18:21:24.255Z,17.90
2022-10-31T18:23:31.159Z,17.92
2022-10-31T18:25:39.815Z,17.08
2022-10-31T18:27:46.681Z,17.52
2022-10-31T18:29:53.787Z,18.65
2022-10-31T18:32:06.810Z,17.88
2022-10-31T18:34:16.192Z,17.13
2022-10-31T18:36:23.253Z,18.30
2022-10-31T18:38:30.423Z,17.60
2022-10-31T18:40:38.165Z,17.98
2022-10-31T18:42:45.717Z,17.90
2022-10-31T18:44:52.581Z,18.45
2022-10-31T18:47:01.219Z,18.08
2022-10-31T18:49:08.698Z,18.30
2022-10-31T18:51:19.134Z,18.30
2022-10-31T18:53:26.088Z,17.00
2022-10-31T18:55:33.434Z,17.25
2022-10-31T18:57:40.514Z,18.10
2022-10-31T18:59:47.637Z,18.20
2022-10-31T19:01:54.583Z,18.33
2022-10-31T19:04:03.609Z,18.17
2022-10-31T19:06:10.825Z,18.60
2022-10-31T19:08:18.263Z,19.67
2022-10-31T19:10:25.143Z,20.05
2022-10-31T19:12:34.233Z,18.25
2022-10-31T19:14:41.218Z,19.38
2022-10-31T19:16:50.911Z,19.10
2022-10-31T19:19:00.903Z,19.40
2022-10-31T19:21:12.455Z,17.88
2022-10-31T19:23:19.371Z,19.02
2022-10-31T19:25:26.238Z,18.58
2022-10-31T19:27:33.103Z,19.55
2022-10-31T19:29:40.938Z,18.45
2022-10-31T19:31:49.146Z,19.13
2022-10-31T19:33:56.099Z,19.60
2022-10-31T19:36:09.186Z,18.55
2022-10-31T19:38:18.090Z,18.98
2022-10-31T19:40:25.020Z,19.92
2022-10-31T19:42:31.997Z,19.23
2022-10-31T19:44:38.799Z,18.52
2022-10-31T19:46:54.125Z,18.48
2022-10-31T19:49:02.115Z,19.08
2022-10-31T19:51:10.560Z,18.35
2022-10-31T19:53:19.030Z,19.02
2022-10-31T19:55:25.949Z,18.08
2022-10-31T19:57:56.299Z,19.05
2022-10-31T19:59:59.731Z,19.05
2022-10-31T20:02:06.618Z,19.02
2022-10-31T20:04:13.764Z,18.10
2022-10-31T20:06:24.598Z,19.30
2022-10-31T20:08:38.483Z,18.92
2022-10-31T20:10:56.180Z,19.13
2022-10-31T20:13:03.537Z,20.30
2022-10-31T20:15:11.417Z,20.20
2022-10-31T20:17:18.335Z,18.40
2022-10-31T20:19:25.724Z,19.35
2022-10-31T20:21:33.572Z,20.35
2022-10-31T20:23:42.914Z,19.65
2022-10-31T20:25:53.314Z,20.50
2022-10-31T20:28:01.230Z,20.02
2022-10-31T20:30:08.743Z,19.90
2022-10-31T20:32:15.919Z,20.83
2022-10-31T20:34:22.756Z,19.95
2022-10-31T20:36:30.583Z,19.40
2022-10-31T20:38:40.017Z,19.63
2022-10-31T20:40:48.472Z,19.60
2022-10-31T20:42:55.237Z,21.58
2022-10-31T20:45:02.022Z,22.60
2022-10-31T20:47:09.418Z,23.17
2022-10-31T20:49:16.956Z,23.58
2022-10-31T20:51:25.869Z,21.95
2022-10-31T20:53:33.334Z,22.08
2022-10-31T20:55:40.223Z,21.50
2022-10-31T20:57:49.446Z,20.95
2022-10-31T20:59:56.306Z,21.33
2022-10-31T21:02:03.334Z,21.20
2022-10-31T21:04:12.945Z,21.67
2022-10-31T21:06:21.899Z,21.25
2022-10-31T21:08:30.250Z,21.13
2022-10-31T21:10:37.103Z,21.02
2022-10-31T21:12:44.930Z,22.13
2022-10-31T21:14:53.406Z,22.70
2022-10-31T21:17:00.261Z,23.00
2022-10-31T21:19:08.280Z,22.60
2022-10-31T21:21:16.447Z,21.98
2022-10-31T21:23:23.322Z,21.30
2022-10-31T21:25:30.231Z,22.38
2022-10-31T21:27:37.274Z,23.77
2022-10-31T21:29:44.526Z,28.23
2022-10-31T21:31:53.409Z,26.25
2022-10-31T21:34:00.421Z,26.10
2022-10-31T21:36:07.993Z,24.20
2022-10-31T21:38:16.557Z,22.98
2022-10-31T21:40:23.333Z,24.98
2022-10-31T21:42:30.549Z,24.95
2022-10-31T21:44:37.712Z,29.25
2022-10-31T21:46:45.355Z,30.45
2022-10-31T21:48:54.446Z,30.77
2022-10-31T21:51:04.935Z,34.28
2022-10-31T21:53:24.846Z,36.05
2022-10-31T21:55:32.028Z,35.85
2022-10-31T21:57:39.221Z,35.20
2022-10-31T21:59:49.381Z,37.58
2022-10-31T22:01:59.170Z,39.22
2022-10-31T22:04:08.217Z,37.13
2022-10-31T22:06:16.068Z,35.63
2022-10-31T22:08:22.809Z,34.28
2022-10-31T22:10:29.712Z,32.25
2022-10-31T22:12:37.047Z,32.80
2022-10-31T22:14:44.000Z,31.63
2022-10-31T22:16:51.175Z,34.00
2022-10-31T22:18:58.897Z,31.75
2022-10-31T22:21:08.890Z,35.80
2022-10-31T22:23:15.734Z,36.72
2022-10-31T22:25:22.619Z,40.22
2022-10-31T22:27:29.766Z,39.03
2022-10-31T22:29:38.497Z,37.00
2022-10-31T22:31:48.467Z,35.47
2022-10-31T22:33:57.994Z,36.95
2022-10-31T22:36:07.185Z,32.80
2022-10-31T22:38:14.066Z,29.80
2022-10-31T22:40:21.069Z,28.02
2022-10-31T22:42:27.831Z,27.10
2022-10-31T22:44:34.903Z,26.75
2022-10-31T22:46:42.610Z,29.02
2022-10-31T22:48:50.616Z,28.75
2022-10-31T22:50:57.776Z,26.95
2022-10-31T22:53:06.435Z,27.42
2022-10-31T22:55:13.888Z,26.90
2022-10-31T22:57:20.998Z,26.75
2022-10-31T22:59:28.121Z,26.85
2022-10-31T23:01:36.433Z,26.88
2022-10-31T23:03:43.917Z,26.58
2022-10-31T23:05:58.854Z,26.80
2022-10-31T23:08:07.585Z,26.05
2022-10-31T23:10:14.615Z,25.67
2022-10-31T23:12:49.510Z,27.40
2022-10-31T23:14:56.405Z,26.38
2022-10-31T23:17:03.252Z,28.00
2022-10-31T23:19:11.081Z,26.67
2022-10-31T23:21:33.681Z,26.10
2022-10-31T23:23:42.564Z,26.63
2022-10-31T23:26:05.989Z,26.13
2022-10-31T23:28:12.881Z,26.00
2022-10-31T23:30:19.913Z,25.35
2022-10-31T23:32:30.106Z,26.48
2022-10-31T23:34:36.998Z,25.17
2022-10-31T23:36:44.347Z,25.17
2022-10-31T23:38:53.054Z,26.25
2022-10-31T23:40:59.904Z,25.02
2022-10-31T23:43:07.090Z,25.52
2022-10-31T23:45:14.106Z,26.75
2022-10-31T23:47:23.285Z,28.67
2022-10-31T23:49:30.468Z,28.27
2022-10-31T23:51:37.782Z,28.38
2022-10-31T23:53:47.035Z,30.23
2022-10-31T23:55:58.736Z,32.05
2022-10-31T23:58:05.691Z,31.65
